createdAt,value
2023-02-27T00:00:56.844Z,98221.16
2023-02-27T00:03:28.305Z,98223.20
2023-02-27T00:05:56.802Z,98224.79
2023-02-27T00:08:25.132Z,98229.22
2023-02-27T00:10:53.095Z,98229.23
2023-02-27T00:13:21.376Z,98235.73
2023-02-27T00:15:51.924Z,98239.60
2023-02-27T00:18:19.969Z,98241.20
2023-02-27T00:20:48.708Z,98238.20
2023-02-27T00:23:16.619Z,98241.03
2023-02-27T00:25:44.548Z,98239.38
2023-02-27T00:28:12.480Z,98243.74
2023-02-27T00:30:40.660Z,98241.88
2023-02-27T00:33:09.156Z,98241.65
2023-02-27T00:35:37.078Z,98243.56
2023-02-27T00:38:05.620Z,98239.95
2023-02-27T00:40:36.049Z,98238.64
2023-02-27T00:43:04.641Z,98239.66
2023-02-27T00:45:32.591Z,98233.69
2023-02-27T00:48:02.214Z,98231.17
2023-02-27T00:50:30.465Z,98230.48
2023-02-27T00:52:58.450Z,98230.67
2023-02-27T00:55:27.437Z,98227.40
2023-02-27T00:57:55.696Z,98225.73
2023-02-27T01:00:23.884Z,98223.15
2023-02-27T01:02:51.980Z,98226.15
2023-02-27T01:05:20.105Z,98232.30
2023-02-27T01:07:48.131Z,98239.27
2023-02-27T01:10:16.499Z,98237.61
2023-02-27T01:12:44.459Z,98239.32
2023-02-27T01:15:12.899Z,98239.91
2023-02-27T01:17:41.042Z,98238.64
2023-02-27T01:20:12.188Z,98244.84
2023-02-27T01:22:40.850Z,98245.87
2023-02-27T01:25:09.817Z,98249.37
2023-02-27T01:27:41.315Z,98250.12
2023-02-27T01:30:11.846Z,98252.61
2023-02-27T01:32:39.904Z,98255.45
2023-02-27T01:35:08.200Z,98260.61
2023-02-27T01:37:36.199Z,98262.34
2023-02-27T01:40:07.487Z,98265.02
2023-02-27T01:42:36.040Z,98263.59
2023-02-27T01:45:13.167Z,98273.67
2023-02-27T01:48:11.621Z,98275.30
2023-02-27T01:50:47.045Z,98280.88
2023-02-27T01:53:15.442Z,98280.42
2023-02-27T01:55:43.589Z,98284.02
2023-02-27T01:58:13.672Z,98285.23
2023-02-27T02:00:41.895Z,98286.98
2023-02-27T02:03:31.611Z,98290.45
2023-02-27T02:06:03.577Z,98292.61
2023-02-27T02:08:36.798Z,98289.27
2023-02-27T02:11:06.546Z,98293.66
2023-02-27T02:13:34.890Z,98293.30
2023-02-27T02:16:21.166Z,98292.97
2023-02-27T02:19:02.801Z,98299.73
2023-02-27T02:21:42.951Z,98298.36
2023-02-27T02:24:16.911Z,98299.06
2023-02-27T02:27:19.198Z,98299.59
2023-02-27T02:30:25.885Z,98302.63
2023-02-27T02:33:09.159Z,98306.83
2023-02-27T02:35:57.274Z,98313.54
2023-02-27T02:38:25.139Z,98308.41
2023-02-27T02:41:21.583Z,98306.15
2023-02-27T02:44:12.627Z,98302.58
2023-02-27T02:46:57.183Z,98299.91
2023-02-27T02:49:32.737Z,98305.40
2023-02-27T02:52:09.074Z,98309.52
2023-02-27T02:54:46.689Z,98306.55
2023-02-27T02:57:22.122Z,98310.86
2023-02-27T03:00:01.347Z,98312.77
2023-02-27T03:02:35.953Z,98314.27
2023-02-27T03:05:11.795Z,98316.35
2023-02-27T03:07:47.754Z,98315.35
2023-02-27T03:10:30.978Z,98314.31
2023-02-27T03:13:18.250Z,98320.66
2023-02-27T03:16:02.407Z,98324.01
2023-02-27T03:18:40.957Z,98327.54
2023-02-27T03:21:17.927Z,98330.67
2023-02-27T03:23:48.052Z,98335.42
2023-02-27T03:26:22.647Z,98335.70
2023-02-27T03:29:15.417Z,98333.84
2023-02-27T03:32:01.269Z,98331.87
2023-02-27T03:34:41.503Z,98326.30
2023-02-27T03:37:39.788Z,98329.20
2023-02-27T03:40:26.007Z,98332.73
2023-02-27T03:43:11.706Z,98334.23
2023-02-27T03:46:08.416Z,98338.88
2023-02-27T03:48:36.548Z,98338.86
2023-02-27T03:51:04.659Z,98338.64
2023-02-27T03:53:52.107Z,98344.52
2023-02-27T03:56:29.605Z,98345.54
2023-02-27T03:58:58.742Z,98348.38
2023-02-27T04:01:27.543Z,98347.98
2023-02-27T04:04:01.814Z,98348.52
2023-02-27T04:07:17.232Z,98350.95
2023-02-27T04:10:07.491Z,98357.92
2023-02-27T04:12:45.952Z,98361.36
2023-02-27T04:15:21.883Z,98364.86
2023-02-27T04:17:55.701Z,98363.70
2023-02-27T04:20:44.157Z,98366.17
2023-02-27T04:23:20.052Z,98375.73
2023-02-27T04:26:11.284Z,98382.45
2023-02-27T04:28:59.874Z,98385.21
2023-02-27T04:31:58.772Z,98390.16
2023-02-27T04:34:29.727Z,98393.45
2023-02-27T04:37:08.269Z,98392.33
2023-02-27T04:39:45.840Z,98391.36
2023-02-27T04:42:18.813Z,98394.11
2023-02-27T04:44:50.542Z,98391.52
2023-02-27T04:47:22.100Z,98393.95
2023-02-27T04:50:04.524Z,98394.37
2023-02-27T04:52:39.621Z,98395.11
2023-02-27T04:55:10.826Z,98396.31
2023-02-27T04:57:47.151Z,98397.86
2023-02-27T05:00:20.083Z,98398.29
2023-02-27T05:02:54.951Z,98399.66
2023-02-27T05:05:28.421Z,98399.87
2023-02-27T05:08:05.314Z,98404.95
2023-02-27T05:10:47.160Z,98408.36
2023-02-27T05:13:22.293Z,98406.27
2023-02-27T05:15:56.415Z,98406.03
2023-02-27T05:18:25.552Z,98408.90
2023-02-27T05:21:17.148Z,98413.79
2023-02-27T05:24:23.218Z,98419.05
2023-02-27T05:26:57.292Z,98417.52
2023-02-27T05:29:28.434Z,98417.67
2023-02-27T05:32:05.411Z,98422.47
2023-02-27T05:35:11.534Z,98422.10
2023-02-27T05:37:48.165Z,98425.10
2023-02-27T05:40:26.611Z,98425.80
2023-02-27T05:43:23.382Z,98426.00
2023-02-27T05:45:56.933Z,98429.42
2023-02-27T05:48:34.490Z,98427.15
2023-02-27T05:51:05.387Z,98426.50
2023-02-27T05:53:46.130Z,98432.75
2023-02-27T05:56:18.228Z,98440.10
2023-02-27T05:59:03.088Z,98443.44
2023-02-27T06:01:31.065Z,98446.92
2023-02-27T06:03:59.193Z,98449.52
2023-02-27T06:06:31.955Z,98449.58
2023-02-27T06:08:59.795Z,98454.70
2023-02-27T06:11:27.745Z,98454.88
2023-02-27T06:13:55.790Z,98449.52
2023-02-27T06:16:23.652Z,98460.28
2023-02-27T06:18:51.636Z,98462.04
2023-02-27T06:21:19.630Z,98464.15
2023-02-27T06:23:47.547Z,98463.98
2023-02-27T06:26:15.839Z,98464.31
2023-02-27T06:28:43.870Z,98462.63
2023-02-27T06:31:11.901Z,98462.29
2023-02-27T06:33:40.609Z,98466.79
2023-02-27T06:36:08.597Z,98470.37
2023-02-27T06:38:44.580Z,98471.41
2023-02-27T06:41:13.563Z,98470.88
2023-02-27T06:43:41.514Z,98470.36
2023-02-27T06:46:09.506Z,98471.57
2023-02-27T06:48:37.661Z,98471.39
2023-02-27T06:51:06.593Z,98468.67
2023-02-27T06:53:34.609Z,98464.48
2023-02-27T06:56:03.051Z,98469.17
2023-02-27T06:58:31.126Z,98472.31
2023-02-27T07:01:01.067Z,98474.81
2023-02-27T07:03:29.009Z,98476.58
2023-02-27T07:05:58.810Z,98482.36
2023-02-27T07:08:26.863Z,98486.34
2023-02-27T07:10:54.765Z,98491.30
2023-02-27T07:13:23.436Z,98486.46
2023-02-27T07:15:52.414Z,98486.45
2023-02-27T07:18:20.487Z,98491.64
2023-02-27T07:20:51.392Z,98488.54
2023-02-27T07:23:19.333Z,98491.30
2023-02-27T07:25:48.338Z,98488.48
2023-02-27T07:28:17.177Z,98489.27
2023-02-27T07:30:48.305Z,98491.67
2023-02-27T07:33:16.269Z,98491.08
2023-02-27T07:35:45.400Z,98487.96
2023-02-27T07:38:13.438Z,98488.98
2023-02-27T07:40:42.180Z,98486.94
2023-02-27T07:43:10.136Z,98487.63
2023-02-27T07:45:38.240Z,98489.94
2023-02-27T07:48:07.422Z,98494.99
2023-02-27T07:50:35.327Z,98494.68
2023-02-27T07:53:03.485Z,98500.63
2023-02-27T07:55:31.496Z,98501.38
2023-02-27T07:57:59.411Z,98508.33
2023-02-27T08:00:27.428Z,98512.70
2023-02-27T08:02:55.372Z,98514.19
2023-02-27T08:05:23.514Z,98516.36
2023-02-27T08:07:51.472Z,98522.80
2023-02-27T08:10:19.464Z,98525.87
2023-02-27T08:12:47.818Z,98527.06
2023-02-27T08:15:17.329Z,98529.79
2023-02-27T08:17:46.824Z,98534.39
2023-02-27T08:20:16.344Z,98539.75
2023-02-27T08:22:44.602Z,98540.86
2023-02-27T08:25:12.593Z,98546.83
2023-02-27T08:27:40.944Z,98549.18
2023-02-27T08:30:12.220Z,98546.70
2023-02-27T08:32:40.431Z,98552.73
2023-02-27T08:35:09.490Z,98555.03
2023-02-27T08:37:37.495Z,98555.02
2023-02-27T08:40:11.378Z,98554.86
2023-02-27T08:42:39.726Z,98554.23
2023-02-27T08:45:09.336Z,98556.95
2023-02-27T08:47:37.461Z,98558.30
2023-02-27T08:50:06.291Z,98560.50
2023-02-27T08:52:34.270Z,98561.20
2023-02-27T08:55:02.295Z,98559.39
2023-02-27T08:57:31.168Z,98559.32
2023-02-27T08:59:59.042Z,98558.80
2023-02-27T09:02:27.461Z,98564.00
2023-02-27T09:04:55.491Z,98562.41
2023-02-27T09:07:23.495Z,98571.05
2023-02-27T09:09:51.402Z,98571.19
2023-02-27T09:12:19.368Z,98564.48
2023-02-27T09:14:47.351Z,98569.00
2023-02-27T09:17:15.314Z,98568.86
2023-02-27T09:19:43.298Z,98572.02
2023-02-27T09:22:11.184Z,98577.35
2023-02-27T09:24:39.133Z,98583.21
2023-02-27T09:27:07.103Z,98586.61
2023-02-27T09:29:35.103Z,98586.76
2023-02-27T09:32:03.222Z,98591.59
2023-02-27T09:34:31.134Z,98590.67
2023-02-27T09:37:00.202Z,98593.66
2023-02-27T09:39:29.959Z,98595.15
2023-02-27T09:42:03.476Z,98600.27
2023-02-27T09:44:48.969Z,98597.96
2023-02-27T09:47:35.762Z,98604.69
2023-02-27T09:50:27.000Z,98605.23
2023-02-27T09:52:55.071Z,98603.70
2023-02-27T09:55:25.131Z,98610.60
2023-02-27T09:58:08.181Z,98612.80
2023-02-27T10:01:11.828Z,98619.41
2023-02-27T10:04:01.677Z,98622.17
2023-02-27T10:06:54.208Z,98624.70
2023-02-27T10:09:43.111Z,98625.64
2023-02-27T10:12:29.799Z,98625.73
2023-02-27T10:15:23.237Z,98626.40
2023-02-27T10:17:57.252Z,98623.19
2023-02-27T10:20:35.886Z,98620.71
2023-02-27T10:23:12.408Z,98624.58
2023-02-27T10:25:45.886Z,98627.21
2023-02-27T10:28:18.729Z,98616.34
2023-02-27T10:30:59.487Z,98627.77
2023-02-27T10:33:38.560Z,98623.08
2023-02-27T10:36:20.712Z,98622.52
2023-02-27T10:39:01.296Z,98621.31
2023-02-27T10:41:29.879Z,98621.58
2023-02-27T10:44:00.600Z,98620.00
2023-02-27T10:46:31.968Z,98618.57
2023-02-27T10:49:02.124Z,98618.17
2023-02-27T10:51:35.235Z,98617.48
2023-02-27T10:54:17.332Z,98616.52
2023-02-27T10:56:50.725Z,98612.37
2023-02-27T10:59:24.002Z,98611.32
2023-02-27T11:01:58.937Z,98613.73
2023-02-27T11:04:39.024Z,98608.90
2023-02-27T11:07:12.208Z,98609.06
2023-02-27T11:09:40.291Z,98610.94
2023-02-27T11:12:20.252Z,98613.36
2023-02-27T11:14:53.466Z,98612.06
2023-02-27T11:17:34.190Z,98610.27
2023-02-27T11:20:06.628Z,98610.11
2023-02-27T11:22:34.526Z,98613.05
2023-02-27T11:25:24.333Z,98611.09
2023-02-27T11:27:52.481Z,98613.63
2023-02-27T11:30:32.059Z,98612.47
2023-02-27T11:33:01.615Z,98614.98
2023-02-27T11:35:36.174Z,98611.05
2023-02-27T11:38:05.833Z,98616.11
2023-02-27T11:40:39.727Z,98617.48
2023-02-27T11:43:19.190Z,98616.83
2023-02-27T11:46:13.313Z,98619.33
2023-02-27T11:48:48.498Z,98617.29
2023-02-27T11:51:47.669Z,98620.80
2023-02-27T11:54:40.977Z,98619.79
2023-02-27T11:57:24.017Z,98622.41
2023-02-27T12:00:06.626Z,98618.77
2023-02-27T12:03:11.984Z,98620.86
2023-02-27T12:05:54.499Z,98623.81
2023-02-27T12:08:34.870Z,98623.13
2023-02-27T12:11:41.587Z,98619.77
2023-02-27T12:14:21.849Z,98623.64
2023-02-27T12:16:56.950Z,98621.15
2023-02-27T12:19:42.051Z,98622.10
2023-02-27T12:22:21.294Z,98620.98
2023-02-27T12:24:56.070Z,98621.74
2023-02-27T12:27:38.095Z,98624.92
2023-02-27T12:30:13.587Z,98626.36
2023-02-27T12:32:53.764Z,98629.85
2023-02-27T12:35:29.549Z,98635.55
2023-02-27T12:37:58.484Z,98635.11
2023-02-27T12:40:56.749Z,98641.50
2023-02-27T12:43:42.136Z,98641.73
2023-02-27T12:46:25.303Z,98641.60
2023-02-27T12:49:18.031Z,98646.45
2023-02-27T12:51:48.992Z,98652.08
2023-02-27T12:54:34.108Z,98655.45
2023-02-27T12:57:08.374Z,98659.81
2023-02-27T12:59:59.261Z,98657.51
2023-02-27T13:02:38.495Z,98659.13
2023-02-27T13:05:27.849Z,98661.64
2023-02-27T13:08:18.633Z,98661.19
2023-02-27T13:10:58.998Z,98660.89
2023-02-27T13:13:44.203Z,98660.42
2023-02-27T13:16:41.429Z,98662.45
2023-02-27T13:19:20.402Z,98662.52
2023-02-27T13:21:56.625Z,98663.87
2023-02-27T13:24:30.428Z,98662.98
2023-02-27T13:27:25.338Z,98663.70
2023-02-27T13:30:18.380Z,98662.44
2023-02-27T13:33:25.538Z,98659.09
2023-02-27T13:36:16.058Z,98660.46
2023-02-27T13:38:49.550Z,98662.50
2023-02-27T13:41:20.710Z,98662.67
2023-02-27T13:43:53.323Z,98659.58
2023-02-27T13:46:33.049Z,98663.16
2023-02-27T13:49:12.543Z,98659.44
2023-02-27T13:51:48.185Z,98665.11
2023-02-27T13:54:16.312Z,98660.70
2023-02-27T13:56:50.596Z,98658.49
2023-02-27T13:59:40.148Z,98656.45
2023-02-27T14:02:11.440Z,98659.73
2023-02-27T14:04:51.152Z,98657.56
2023-02-27T14:07:25.721Z,98662.11
2023-02-27T14:10:09.273Z,98663.30
2023-02-27T14:12:45.723Z,98663.86
2023-02-27T14:15:23.903Z,98669.20
2023-02-27T14:18:11.248Z,98669.73
2023-02-27T14:20:42.100Z,98673.66
2023-02-27T14:23:16.076Z,98670.42
2023-02-27T14:25:52.257Z,98678.20
2023-02-27T14:28:51.939Z,98677.80
2023-02-27T14:31:28.867Z,98676.54
2023-02-27T14:34:01.165Z,98680.00
2023-02-27T14:36:32.043Z,98683.58
2023-02-27T14:39:02.078Z,98682.50
2023-02-27T14:42:11.615Z,98680.90
2023-02-27T14:44:47.956Z,98685.08
2023-02-27T14:47:20.640Z,98687.98
2023-02-27T14:49:49.206Z,98689.83
2023-02-27T14:52:27.342Z,98694.55
2023-02-27T14:55:30.126Z,98697.64
2023-02-27T14:58:21.844Z,98704.66
2023-02-27T15:00:55.745Z,98700.59
2023-02-27T15:03:47.950Z,98708.40
2023-02-27T15:06:30.582Z,98705.80
2023-02-27T15:09:00.306Z,98711.48
2023-02-27T15:11:28.774Z,98715.08
2023-02-27T15:14:01.524Z,98714.17
2023-02-27T15:16:34.598Z,98715.48
2023-02-27T15:19:21.684Z,98720.77
2023-02-27T15:21:59.407Z,98723.46
2023-02-27T15:24:40.691Z,98722.02
2023-02-27T15:27:23.015Z,98722.66
2023-02-27T15:29:57.500Z,98723.35
2023-02-27T15:32:25.636Z,98726.50
2023-02-27T15:34:54.789Z,98728.46
2023-02-27T15:37:27.812Z,98726.98
2023-02-27T15:39:57.177Z,98731.70
2023-02-27T15:42:37.845Z,98734.15
2023-02-27T15:45:07.691Z,98739.16
2023-02-27T15:47:35.972Z,98747.56
2023-02-27T15:50:17.417Z,98747.45
2023-02-27T15:53:03.870Z,98751.97
2023-02-27T15:55:35.832Z,98751.39
2023-02-27T15:58:15.552Z,98759.95
2023-02-27T16:00:44.274Z,98763.83
2023-02-27T16:03:19.713Z,98768.94
2023-02-27T16:05:53.397Z,98771.50
2023-02-27T16:08:21.542Z,98773.86
2023-02-27T16:10:51.457Z,98773.17
2023-02-27T16:13:25.613Z,98778.64
2023-02-27T16:16:04.640Z,98775.46
2023-02-27T16:18:35.553Z,98775.27
2023-02-27T16:21:13.127Z,98781.17
2023-02-27T16:23:42.561Z,98788.66
2023-02-27T16:26:31.283Z,98792.24
2023-02-27T16:29:01.426Z,98791.14
2023-02-27T16:31:32.559Z,98790.20
2023-02-27T16:34:16.097Z,98794.23
2023-02-27T16:36:57.321Z,98797.52
2023-02-27T16:39:25.551Z,98800.21
2023-02-27T16:41:54.502Z,98805.45
2023-02-27T16:44:24.474Z,98804.80
2023-02-27T16:46:54.559Z,98807.41
2023-02-27T16:49:25.907Z,98812.95
2023-02-27T16:51:54.986Z,98814.08
2023-02-27T16:54:23.749Z,98816.08
2023-02-27T16:56:52.072Z,98820.35
2023-02-27T16:59:23.246Z,98818.89
2023-02-27T17:01:51.652Z,98822.43
2023-02-27T17:04:25.933Z,98829.06
2023-02-27T17:06:55.554Z,98831.92
2023-02-27T17:09:24.248Z,98833.20
2023-02-27T17:11:52.335Z,98837.23
2023-02-27T17:14:20.431Z,98839.02
2023-02-27T17:16:48.621Z,98840.87
2023-02-27T17:19:16.872Z,98843.66
2023-02-27T17:21:45.001Z,98845.82
2023-02-27T17:24:13.170Z,98850.98
2023-02-27T17:26:41.108Z,98852.66
2023-02-27T17:29:09.865Z,98853.48
2023-02-27T17:31:38.633Z,98856.70
2023-02-27T17:34:09.003Z,98860.64
2023-02-27T17:36:37.785Z,98862.02
2023-02-27T17:39:07.304Z,98864.05
2023-02-27T17:41:35.260Z,98860.71
2023-02-27T17:44:03.415Z,98864.17
2023-02-27T17:46:31.965Z,98864.51
2023-02-27T17:49:00.825Z,98867.31
2023-02-27T17:51:30.730Z,98867.34
2023-02-27T17:54:02.425Z,98869.25
2023-02-27T17:56:30.699Z,98869.98
2023-02-27T17:58:59.332Z,98868.55
2023-02-27T18:01:27.564Z,98872.05
2023-02-27T18:03:56.681Z,98872.44
2023-02-27T18:06:25.269Z,98874.09
2023-02-27T18:08:53.350Z,98876.24
2023-02-27T18:11:22.146Z,98878.25
2023-02-27T18:13:50.798Z,98881.55
2023-02-27T18:16:22.114Z,98887.04
2023-02-27T18:18:50.441Z,98890.46
2023-02-27T18:21:21.466Z,98890.83
2023-02-27T18:23:52.019Z,98895.80
2023-02-27T18:26:30.057Z,98896.73
2023-02-27T18:29:02.261Z,98895.65
2023-02-27T18:31:44.586Z,98897.08
2023-02-27T18:34:13.404Z,98902.74
2023-02-27T18:36:42.199Z,98904.48
2023-02-27T18:39:10.767Z,98911.49
2023-02-27T18:41:38.852Z,98910.08
2023-02-27T18:44:08.290Z,98911.75
2023-02-27T18:46:38.714Z,98917.40
2023-02-27T18:49:06.999Z,98917.46
2023-02-27T18:51:35.344Z,98918.55
2023-02-27T18:54:06.381Z,98920.06
2023-02-27T18:56:34.405Z,98918.70
2023-02-27T18:59:05.534Z,98918.77
2023-02-27T19:01:37.127Z,98919.38
2023-02-27T19:04:08.656Z,98926.33
2023-02-27T19:06:42.650Z,98928.73
2023-02-27T19:09:16.825Z,98928.71
2023-02-27T19:11:47.062Z,98930.07
2023-02-27T19:14:16.422Z,98927.25
2023-02-27T19:16:46.337Z,98928.85
2023-02-27T19:19:15.364Z,98927.90
2023-02-27T19:21:44.051Z,98936.51
2023-02-27T19:24:13.751Z,98942.67
2023-02-27T19:26:41.799Z,98940.69
2023-02-27T19:29:09.773Z,98938.58
2023-02-27T19:31:38.004Z,98945.34
2023-02-27T19:34:06.620Z,98946.65
2023-02-27T19:36:34.908Z,98944.19
2023-02-27T19:39:04.293Z,98945.83
2023-02-27T19:41:33.626Z,98949.69
2023-02-27T19:44:02.277Z,98946.52
2023-02-27T19:46:33.790Z,98945.86
2023-02-27T19:49:05.844Z,98951.05
2023-02-27T19:51:33.888Z,98954.64
2023-02-27T19:54:52.461Z,98951.33
2023-02-27T19:57:20.629Z,98951.48
2023-02-27T19:59:48.912Z,98959.41
2023-02-27T20:02:17.900Z,98958.10
2023-02-27T20:04:45.841Z,98955.96
2023-02-27T20:07:19.342Z,98955.08
2023-02-27T20:09:47.987Z,98955.44
2023-02-27T20:12:16.192Z,98959.89
2023-02-27T20:14:44.763Z,98960.83
2023-02-27T20:17:13.033Z,98968.30
2023-02-27T20:19:41.062Z,98971.65
2023-02-27T20:22:09.253Z,98973.70
2023-02-27T20:24:37.274Z,98974.30
2023-02-27T20:27:05.425Z,98972.46
2023-02-27T20:29:33.597Z,98976.17
2023-02-27T20:32:02.343Z,98979.71
2023-02-27T20:34:30.690Z,98979.27
2023-02-27T20:36:58.707Z,98978.40
2023-02-27T20:39:29.152Z,98976.77
2023-02-27T20:41:57.574Z,98979.55
2023-02-27T20:44:25.503Z,98980.42
2023-02-27T20:46:53.961Z,98982.21
2023-02-27T20:49:23.030Z,98981.92
2023-02-27T20:51:50.982Z,98984.84
2023-02-27T20:54:20.858Z,98990.22
2023-02-27T20:56:54.507Z,98991.92
2023-02-27T20:59:25.292Z,98994.27
2023-02-27T21:01:54.791Z,98992.39
2023-02-27T21:04:42.690Z,98989.33
2023-02-27T21:07:16.244Z,98987.55
2023-02-27T21:09:45.578Z,98987.03
2023-02-27T21:12:13.812Z,98988.14
2023-02-27T21:14:45.422Z,98987.52
2023-02-27T21:17:13.999Z,98985.62
2023-02-27T21:19:41.966Z,98987.40
2023-02-27T21:22:11.482Z,98986.77
2023-02-27T21:24:39.469Z,98983.23
2023-02-27T21:27:07.840Z,98984.87
2023-02-27T21:29:37.180Z,98980.19
2023-02-27T21:32:05.712Z,98979.16
2023-02-27T21:34:33.751Z,98984.98
2023-02-27T21:37:03.199Z,98990.80
2023-02-27T21:39:31.277Z,98991.69
2023-02-27T21:42:01.899Z,98993.27
2023-02-27T21:44:30.062Z,98992.64
2023-02-27T21:46:58.518Z,98994.63
2023-02-27T21:49:28.667Z,98998.00
2023-02-27T21:51:57.208Z,98997.61
2023-02-27T21:54:25.090Z,99002.13
2023-02-27T21:56:53.077Z,99003.27
2023-02-27T21:59:21.775Z,99002.98
2023-02-27T22:01:49.978Z,99002.73
2023-02-27T22:04:20.079Z,99004.10
2023-02-27T22:06:49.782Z,99004.46
2023-02-27T22:09:18.741Z,99006.65
2023-02-27T22:11:47.880Z,99006.23
2023-02-27T22:14:16.728Z,99009.77
2023-02-27T22:16:44.692Z,99008.10
2023-02-27T22:19:20.082Z,99006.73
2023-02-27T22:21:48.428Z,99006.05
2023-02-27T22:24:16.401Z,99009.67
2023-02-27T22:26:45.966Z,99008.80
2023-02-27T22:29:14.146Z,99011.73
2023-02-27T22:31:42.346Z,99006.66
2023-02-27T22:34:12.893Z,99010.88
2023-02-27T22:36:41.828Z,99008.43
2023-02-27T22:39:11.911Z,99005.58
2023-02-27T22:41:42.441Z,99006.67
2023-02-27T22:44:13.222Z,99004.76
2023-02-27T22:46:47.850Z,99007.38
2023-02-27T22:49:21.998Z,99007.94
2023-02-27T22:51:51.985Z,99013.17
2023-02-27T22:54:22.482Z,99018.64
2023-02-27T22:56:52.694Z,99013.39
2023-02-27T22:59:20.948Z,99018.84
2023-02-27T23:01:50.678Z,99017.95
2023-02-27T23:04:18.870Z,99019.20
2023-02-27T23:06:48.175Z,99021.34
2023-02-27T23:09:19.756Z,99015.61
2023-02-27T23:11:48.285Z,99015.92
2023-02-27T23:14:21.531Z,99018.59
2023-02-27T23:16:49.634Z,99019.29
2023-02-27T23:19:20.100Z,99017.30
2023-02-27T23:21:48.021Z,99017.10
2023-02-27T23:24:19.179Z,99017.50
2023-02-27T23:26:50.076Z,99021.59
2023-02-27T23:29:18.650Z,99027.10
2023-02-27T23:31:46.713Z,99023.17
2023-02-27T23:34:14.924Z,99021.78
2023-02-27T23:36:42.859Z,99019.41
2023-02-27T23:39:10.804Z,99022.33
2023-02-27T23:41:38.728Z,99023.93
2023-02-27T23:44:06.784Z,99026.82
2023-02-27T23:46:34.935Z,99031.98
2023-02-27T23:49:03.721Z,99035.92
2023-02-27T23:51:33.639Z,99037.52
2023-02-27T23:54:02.208Z,99037.05
2023-02-27T23:56:31.210Z,99034.81
2023-02-27T23:59:05.310Z,99036.70
